Overview Statistics Trail Chart Weather Telemetry Raw packets
 

This is the latest recevied weather packets stored in our database for station/object EA4HRG-10. If no packets are shown the sender has not sent any weather packets the latest 10 day(s).

<< 9 10 11 12 13 14 15 >>
Time Temp. Humidity Pressure Rain* Wind** Luminosity Snow
1788383439 22.22° C 38% 1020.1 hPa - - - -
1788382567 22.78° C 38% 1020.1 hPa - - - -
1788381639 23.89° C 36% 1019.7 hPa - - - -
1788380739 24.44° C 34% 1019.4 hPa - - - -
1788379839 25° C 34% 1019.1 hPa - - - -
1788378939 25.56° C 32% 1018.5 hPa - - - -
1788378039 26.67° C 30% 1017.9 hPa - - - -
1788377139 27.78° C 29% 1017.2 hPa - - - -
1788376239 28.33° C 28% 1016.7 hPa - - - -
1788375775 29.44° C 26% 1016.1 hPa - - - -
1788375339 29.44° C 26% 1016.1 hPa - - - -
1788374439 31.11° C 24% 1015.4 hPa - - - -
1788373539 33.33° C 21% 1014.5 hPa - - - -
1788372639 35° C 19% 1013.9 hPa - - - -
1788371739 36.67° C 17% 1013.4 hPa - - - -
1788370850 37.78° C 17% 1013 hPa - - - -
1788369939 37.22° C 18% 1013 hPa - - - -
1788369039 38.89° C 16% 1012.5 hPa - - - -
1788368139 39.44° C 16% 1012.3 hPa - - - -
1788367239 40° C 16% 1012 hPa - - - -
1788366339 40.56° C 15% 1011.8 hPa - - - -
1788365439 40° C 15% 1012 hPa - - - -
1788364539 41.67° C 14% 1011.6 hPa - - - -
1788363897 40.56° C 15% 1011.9 hPa - - - -
1788363639 40.56° C 15% 1011.9 hPa - - - -

* Rain since midnight (hover to see other rain measurements)
** Current wind speed in m/s (hover to see current wind gust speed)